Time;durP1;ratioP1;P1;durP2;ratioP2;P2;SDS_P1;SDS_P2;PMS_P1;PMS_P2;Temp;Humidity;BMP_temperature;BMP_pressure;BME280_temperature;BME280_humidity;BME280_pressure;Samples;Min_cycle;Max_cycle;Signal;HPM_P1;HPM_P2
2021/01/19 00:00:42;;;;;;;10.70;9.05;;;19.80;79.20;;;;;;5045140;28;20069;-55
2021/01/19 00:03:07;;;;;;;10.52;8.98;;;19.70;78.90;;;;;;5043676;28;20091;-55
2021/01/19 00:05:33;;;;;;;11.77;9.30;;;19.70;79.10;;;;;;5034878;28;20036;-55
2021/01/19 00:07:58;;;;;;;10.23;8.82;;;19.80;79.10;;;;;;5051593;28;20025;-55
2021/01/19 00:10:24;;;;;;;12.35;9.20;;;19.70;79.10;;;;;;5036638;28;20112;-55
2021/01/19 00:12:50;;;;;;;12.32;9.70;;;19.80;79.00;;;;;;5048525;28;20041;-54
2021/01/19 00:15:15;;;;;;;10.13;8.30;;;19.70;78.70;;;;;;5056480;28;20029;-55
2021/01/19 00:17:41;;;;;;;12.27;9.80;;;19.70;78.90;;;;;;5056550;28;20040;-55
2021/01/19 00:20:08;;;;;;;12.00;9.50;;;19.70;78.70;;;;;;5046420;28;20091;-55
2021/01/19 00:22:34;;;;;;;12.05;9.93;;;19.80;78.80;;;;;;5055085;28;20120;-55
2021/01/19 00:25:00;;;;;;;11.88;9.25;;;19.70;78.90;;;;;;5053308;28;20521;-55
2021/01/19 00:27:26;;;;;;;9.65;8.48;;;19.70;78.80;;;;;;5053880;28;20505;-55
2021/01/19 00:29:52;;;;;;;10.48;8.75;;;19.80;79.00;;;;;;5052344;28;20025;-55
2021/01/19 00:32:17;;;;;;;12.07;9.10;;;19.70;78.80;;;;;;5036047;28;20083;-55
2021/01/19 00:34:43;;;;;;;10.35;8.52;;;19.70;78.70;;;;;;5046815;28;20037;-55
2021/01/19 00:37:08;;;;;;;9.95;8.55;;;19.70;78.60;;;;;;5038019;28;20076;-55
2021/01/19 00:39:34;;;;;;;10.50;8.63;;;19.70;78.80;;;;;;5033947;28;20497;-54
2021/01/19 00:42:00;;;;;;;12.88;9.32;;;19.70;78.40;;;;;;5035768;28;20048;-55
2021/01/19 00:44:25;;;;;;;11.52;9.27;;;19.70;78.60;;;;;;5036625;28;20026;-55
2021/01/19 00:46:52;;;;;;;9.27;7.78;;;19.70;78.60;;;;;;5035707;28;20030;-55
2021/01/19 00:49:18;;;;;;;13.02;9.30;;;19.70;78.80;;;;;;5035632;28;20155;-55
2021/01/19 00:51:44;;;;;;;10.10;8.48;;;19.70;78.60;;;;;;5035800;28;20037;-55
2021/01/19 00:54:10;;;;;;;13.48;9.70;;;19.70;78.40;;;;;;5035464;28;20026;-55
2021/01/19 00:56:40;;;;;;;10.65;8.75;;;19.70;78.70;;;;;;5052837;28;20048;-55
2021/01/19 00:59:06;;;;;;;10.35;8.70;;;19.70;78.40;;;;;;5055304;28;20382;-55
2021/01/19 01:01:32;;;;;;;11.18;8.93;;;19.70;78.30;;;;;;5053534;28;20037;-55
2021/01/19 01:03:58;;;;;;;11.30;8.65;;;19.70;78.50;;;;;;5035128;28;20546;-54
2021/01/19 01:06:23;;;;;;;10.25;9.15;;;19.70;78.50;;;;;;5033611;28;20108;-55
2021/01/19 01:08:49;;;;;;;10.15;8.43;;;19.70;78.40;;;;;;5037516;28;20421;-55
2021/01/19 01:11:15;;;;;;;11.60;9.07;;;19.70;78.50;;;;;;5055362;28;20033;-55
2021/01/19 01:13:40;;;;;;;11.82;9.05;;;19.70;78.40;;;;;;5055290;28;20021;-55
2021/01/19 01:16:13;;;;;;;10.43;8.50;;;19.70;78.30;;;;;;5053405;28;20025;-55
2021/01/19 01:18:38;;;;;;;;;;;19.70;78.50;;;;;;5051442;28;20445;-55
2021/01/19 01:21:04;;;;;;;9.57;8.38;;;19.70;78.60;;;;;;5034396;28;19971;-54
2021/01/19 01:23:30;;;;;;;10.90;8.75;;;19.70;78.40;;;;;;5035275;28;20493;-55
2021/01/19 01:25:55;;;;;;;12.13;8.73;;;19.70;78.20;;;;;;5034983;28;20029;-55
2021/01/19 01:28:21;;;;;;;11.48;9.15;;;19.70;78.20;;;;;;5049411;28;20036;-55
2021/01/19 01:30:47;;;;;;;12.02;9.07;;;19.70;78.30;;;;;;5053156;28;20033;-55
2021/01/19 01:33:12;;;;;;;11.02;8.90;;;19.70;78.30;;;;;;5037622;28;20386;-55
2021/01/19 01:35:38;;;;;;;10.48;8.73;;;19.70;78.10;;;;;;5037644;28;20040;-55
2021/01/19 01:38:03;;;;;;;11.57;9.75;;;19.70;78.10;;;;;;5042391;28;20029;-55
2021/01/19 01:40:29;;;;;;;9.70;8.38;;;19.70;78.10;;;;;;5035096;28;20088;-54
2021/01/19 01:42:56;;;;;;;11.68;8.93;;;19.70;78.40;;;;;;5052573;28;20103;-55
2021/01/19 01:45:24;;;;;;;11.68;9.00;;;19.70;78.40;;;;;;5054630;28;20087;-55
2021/01/19 01:47:51;;;;;;;10.88;8.95;;;19.60;78.30;;;;;;5052588;28;20017;-55
2021/01/19 01:50:17;;;;;;;11.85;9.85;;;19.60;78.30;;;;;;5052839;28;20021;-55
2021/01/19 01:52:44;;;;;;;10.05;8.48;;;19.70;78.40;;;;;;5054278;28;20029;-55
2021/01/19 01:55:10;;;;;;;10.35;9.18;;;19.70;78.40;;;;;;5054469;28;20045;-55
2021/01/19 01:57:40;;;;;;;10.55;8.10;;;19.60;78.60;;;;;;5053000;28;20029;-55
2021/01/19 02:00:07;;;;;;;11.07;8.63;;;19.60;78.50;;;;;;5047308;28;20026;-55
2021/01/19 02:02:33;;;;;;;11.35;9.15;;;19.70;78.40;;;;;;5034660;28;20441;-55
2021/01/19 02:04:59;;;;;;;10.95;8.40;;;19.70;78.50;;;;;;5034351;28;20025;-54
2021/01/19 02:07:31;;;;;;;10.18;8.85;;;19.70;78.50;;;;;;5035556;28;20037;-55
2021/01/19 02:10:12;;;;;;;12.55;9.75;;;19.70;78.30;;;;;;5035179;28;20474;-55
2021/01/19 02:13:00;;;;;;;9.40;8.15;;;19.70;78.30;;;;;;5038501;28;20034;-55
2021/01/19 02:15:36;;;;;;;11.02;8.75;;;19.70;78.10;;;;;;5046167;28;20030;-55
2021/01/19 02:18:23;;;;;;;10.85;8.65;;;19.70;77.90;;;;;;5053815;28;20108;-55
2021/01/19 02:21:20;;;;;;;10.45;8.98;;;19.70;78.10;;;;;;5034493;28;20484;-54
2021/01/19 02:23:55;;;;;;;10.52;8.45;;;19.70;78.00;;;;;;5032489;28;20120;-55
2021/01/19 02:26:48;;;;;;;11.57;9.40;;;19.70;78.30;;;;;;5034657;28;20026;-55
2021/01/19 02:29:37;;;;;;;13.25;9.07;;;19.70;78.20;;;;;;5046624;28;20032;-55
2021/01/19 02:32:33;;;;;;;11.90;9.52;;;19.60;78.20;;;;;;5050780;28;20044;-55
2021/01/19 02:35:24;;;;;;;11.48;8.75;;;19.60;78.30;;;;;;5053502;28;20111;-55
2021/01/19 02:38:21;;;;;;;11.25;8.98;;;19.60;78.20;;;;;;5053721;28;20099;-55
2021/01/19 02:40:48;;;;;;;11.38;8.70;;;19.70;78.90;;;;;;5050096;28;20041;-55
2021/01/19 02:43:25;;;;;;;10.50;8.27;;;19.60;78.40;;;;;;5032504;28;20093;-54
2021/01/19 02:45:55;;;;;;;11.57;9.02;;;19.70;78.20;;;;;;5034448;28;20029;-55
2021/01/19 02:48:22;;;;;;;10.60;8.15;;;19.60;78.30;;;;;;5052533;28;20438;-55
2021/01/19 02:50:48;;;;;;;11.95;8.77;;;19.60;78.00;;;;;;5050461;28;20421;-55
2021/01/19 02:53:15;;;;;;;10.90;8.77;;;19.60;78.10;;;;;;5052751;28;20033;-55
2021/01/19 02:55:42;;;;;;;11.57;9.23;;;19.70;78.30;;;;;;5053430;28;20090;-55
2021/01/19 02:58:36;;;;;;;11.05;8.98;;;19.60;78.10;;;;;;5033615;28;20029;-54
2021/01/19 03:01:23;;;;;;;10.95;8.82;;;19.60;78.40;;;;;;5033601;28;20099;-55
2021/01/19 03:03:50;;;;;;;11.00;8.93;;;19.70;78.10;;;;;;5013592;28;20034;-55
2021/01/19 03:06:18;;;;;;;10.45;8.75;;;19.60;78.20;;;;;;5031291;28;20030;-55
2021/01/19 03:08:46;;;;;;;11.80;9.73;;;19.60;78.10;;;;;;5033232;28;20033;-55
2021/01/19 03:11:15;;;;;;;10.93;8.50;;;19.60;78.20;;;;;;5040861;28;20033;-55
2021/01/19 03:13:46;;;;;;;11.57;9.75;;;19.60;78.10;;;;;;5051517;28;20087;-55
2021/01/19 03:16:17;;;;;;;11.23;9.10;;;19.60;77.80;;;;;;5040174;28;20025;-55
2021/01/19 03:18:44;;;;;;;10.88;9.05;;;19.60;78.00;;;;;;5033257;28;20318;-55
2021/01/19 03:21:11;;;;;;;11.68;9.30;;;19.60;78.00;;;;;;5053206;28;20025;-55
2021/01/19 03:23:37;;;;;;;10.60;8.60;;;19.60;77.80;;;;;;5051496;28;20055;-55
2021/01/19 03:26:04;;;;;;;10.48;8.95;;;19.60;77.90;;;;;;5036100;28;20191;-55
2021/01/19 03:28:30;;;;;;;11.23;9.43;;;19.60;77.60;;;;;;5034087;28;20028;-54
2021/01/19 03:30:56;;;;;;;10.40;8.82;;;19.60;77.80;;;;;;5042339;28;20037;-54
2021/01/19 03:33:22;;;;;;;11.70;8.80;;;19.60;77.80;;;;;;5051284;28;20052;-55
2021/01/19 03:35:48;;;;;;;10.32;8.25;;;19.60;77.80;;;;;;5051263;28;20031;-55
2021/01/19 03:38:14;;;;;;;11.88;9.25;;;19.60;77.80;;;;;;5052381;28;20385;-55
2021/01/19 03:40:40;;;;;;;11.18;9.10;;;19.60;77.90;;;;;;5051551;28;20029;-55
2021/01/19 03:43:06;;;;;;;10.38;8.85;;;19.60;77.80;;;;;;5056489;28;20045;-55
2021/01/19 03:45:32;;;;;;;10.32;8.63;;;19.60;77.70;;;;;;5042608;28;20113;-55
2021/01/19 03:47:58;;;;;;;12.38;9.15;;;19.60;77.90;;;;;;5037368;28;20484;-55
2021/01/19 03:50:24;;;;;;;10.18;8.48;;;19.60;77.80;;;;;;5035592;28;20509;-54
2021/01/19 03:52:50;;;;;;;10.63;8.57;;;19.60;77.60;;;;;;5046727;28;20113;-55
2021/01/19 03:55:17;;;;;;;11.40;8.55;;;19.60;77.40;;;;;;5037597;28;20057;-55
2021/01/19 03:57:43;;;;;;;10.57;8.45;;;19.60;77.50;;;;;;5036848;28;20036;-55
2021/01/19 04:00:11;;;;;;;10.65;8.82;;;19.60;77.20;;;;;;5036627;28;20026;-55
2021/01/19 04:02:37;;;;;;;11.02;8.48;;;19.60;77.40;;;;;;5036603;28;20041;-55
2021/01/19 04:05:03;;;;;;;10.32;8.32;;;19.60;77.30;;;;;;5037854;28;20474;-55
2021/01/19 04:07:29;;;;;;;11.48;8.32;;;19.60;77.40;;;;;;5049376;28;20064;-55
2021/01/19 04:09:54;;;;;;;9.77;8.73;;;19.60;77.10;;;;;;5056235;28;20061;-55
2021/01/19 04:12:20;;;;;;;11.13;8.63;;;19.60;77.10;;;;;;5055654;28;20040;-55
2021/01/19 04:14:46;;;;;;;10.52;8.07;;;19.60;77.40;;;;;;5056573;28;20036;-55
2021/01/19 04:17:11;;;;;;;9.75;7.88;;;19.60;77.10;;;;;;5054619;28;20025;-55
2021/01/19 04:19:37;;;;;;;10.00;8.20;;;19.60;77.10;;;;;;5044494;28;20076;-55
2021/01/19 04:22:03;;;;;;;10.25;8.45;;;19.60;77.00;;;;;;5050319;28;20124;-55
2021/01/19 04:24:28;;;;;;;9.93;7.85;;;19.60;77.10;;;;;;5051941;28;20026;-55
2021/01/19 04:26:54;;;;;;;9.82;7.60;;;19.60;77.30;;;;;;5037207;28;20025;-55
2021/01/19 04:29:19;;;;;;;9.05;7.45;;;19.60;77.30;;;;;;5035988;28;20021;-55
2021/01/19 04:31:45;;;;;;;9.30;8.18;;;19.60;77.30;;;;;;5035870;28;20108;-55
2021/01/19 04:34:11;;;;;;;9.32;7.93;;;19.60;77.20;;;;;;5034665;28;20025;-54
2021/01/19 04:36:36;;;;;;;10.23;7.60;;;19.60;77.20;;;;;;5036944;28;20076;-55
2021/01/19 04:39:03;;;;;;;9.68;7.88;;;19.60;77.40;;;;;;5035687;28;20103;-55
2021/01/19 04:41:28;;;;;;;10.25;7.90;;;19.50;77.10;;;;;;5035835;28;20067;-55
2021/01/19 04:43:55;;;;;;;10.57;7.93;;;19.60;77.10;;;;;;5036174;28;20037;-55
2021/01/19 04:46:23;;;;;;;8.70;7.32;;;19.60;77.10;;;;;;5035695;28;20029;-55
2021/01/19 04:48:49;;;;;;;10.45;7.80;;;19.60;77.10;;;;;;5046990;28;20120;-55
2021/01/19 04:51:21;;;;;;;9.77;7.93;;;19.60;77.00;;;;;;5036409;28;20493;-55
2021/01/19 04:54:03;;;;;;;13.05;7.93;;;19.50;77.00;;;;;;5034893;28;20026;-55
2021/01/19 04:56:30;;;;;;;8.85;7.22;;;19.60;77.00;;;;;;5036063;28;20108;-55
2021/01/19 04:58:57;;;;;;;9.60;7.72;;;19.60;77.10;;;;;;5034968;28;20120;-55
2021/01/19 05:01:35;;;;;;;11.02;8.10;;;19.50;76.80;;;;;;5041819;28;20029;-55
2021/01/19 05:04:27;;;;;;;9.15;7.30;;;19.60;77.00;;;;;;5054955;28;20363;-55
2021/01/19 05:07:33;;;;;;;8.55;7.22;;;19.60;76.80;;;;;;5051741;28;20041;-55
2021/01/19 05:10:07;;;;;;;9.32;7.18;;;19.60;76.70;;;;;;5040651;28;20065;-55
2021/01/19 05:12:39;;;;;;;8.52;6.82;;;19.60;76.60;;;;;;5040987;28;20037;-55
2021/01/19 05:15:10;;;;;;;10.27;7.43;;;19.60;76.70;;;;;;5040104;28;20021;-55
2021/01/19 05:17:36;;;;;;;8.68;7.25;;;19.60;76.80;;;;;;5043436;28;20051;-55
2021/01/19 05:20:03;;;;;;;8.40;7.00;;;19.60;76.70;;;;;;5043435;28;20461;-55
2021/01/19 05:22:28;;;;;;;7.55;6.47;;;19.60;76.70;;;;;;5055150;28;20044;-55
2021/01/19 05:24:54;;;;;;;8.18;7.00;;;19.60;76.50;;;;;;5051854;28;20466;-55
2021/01/19 05:27:20;;;;;;;7.57;6.28;;;19.60;76.50;;;;;;5053615;28;20033;-54
2021/01/19 05:29:45;;;;;;;8.07;7.00;;;19.70;76.60;;;;;;5052957;28;20024;-54
2021/01/19 05:32:11;;;;;;;8.57;7.10;;;19.70;76.50;;;;;;5054303;28;20029;-54
2021/01/19 05:34:37;;;;;;;8.57;7.22;;;19.60;76.50;;;;;;5054197;28;20063;-55
2021/01/19 05:37:03;;;;;;;8.60;7.10;;;19.70;76.60;;;;;;5054011;28;20071;-55
2021/01/19 05:39:29;;;;;;;7.75;6.50;;;19.70;76.50;;;;;;5054608;28;20033;-55
2021/01/19 05:41:56;;;;;;;8.30;6.60;;;19.70;76.30;;;;;;5036769;28;20486;-55
2021/01/19 05:44:32;;;;;;;7.95;6.13;;;19.70;76.30;;;;;;5034802;28;20032;-55
2021/01/19 05:47:03;;;;;;;7.93;6.80;;;19.70;76.50;;;;;;5035136;28;20029;-55
2021/01/19 05:49:42;;;;;;;7.55;5.80;;;19.70;76.70;;;;;;5034902;28;20029;-55
2021/01/19 05:52:11;;;;;;;7.50;6.20;;;19.70;76.30;;;;;;5043626;28;20025;-55
2021/01/19 05:54:41;;;;;;;8.32;7.20;;;19.70;76.20;;;;;;5033761;28;20025;-55
2021/01/19 05:57:09;;;;;;;6.65;5.90;;;19.70;76.40;;;;;;5043142;28;20036;-55
2021/01/19 05:59:40;;;;;;;8.13;6.47;;;19.80;76.60;;;;;;5054340;28;20066;-55
2021/01/19 06:02:18;;;;;;;8.95;6.40;;;19.70;76.30;;;;;;5052367;28;20049;-55
2021/01/19 06:04:47;;;;;;;7.25;6.05;;;19.80;76.50;;;;;;5051813;28;20465;-54
2021/01/19 06:07:14;;;;;;;7.57;5.20;;;19.80;76.40;;;;;;5034512;28;20025;-55
2021/01/19 06:09:43;;;;;;;7.45;6.50;;;19.80;76.40;;;;;;5034284;28;20030;-55
2021/01/19 06:12:10;;;;;;;8.77;6.43;;;19.80;76.50;;;;;;5042040;28;20052;-55
2021/01/19 06:14:36;;;;;;;8.57;6.15;;;19.80;76.40;;;;;;5052961;28;20421;-55
2021/01/19 06:17:12;;;;;;;7.65;6.43;;;19.80;76.40;;;;;;5052307;28;20039;-55
2021/01/19 06:19:40;;;;;;;6.75;5.78;;;19.80;76.50;;;;;;5042612;28;20037;-55
2021/01/19 06:22:12;;;;;;;6.53;5.53;;;19.80;76.70;;;;;;5043773;28;20041;-55
2021/01/19 06:24:48;;;;;;;6.28;5.13;;;19.80;76.70;;;;;;5053290;28;20032;-55
2021/01/19 06:27:20;;;;;;;8.18;6.38;;;19.80;76.60;;;;;;5053669;28;20040;-55
2021/01/19 06:29:46;;;;;;;8.45;6.28;;;19.80;76.70;;;;;;5053388;28;20386;-55
2021/01/19 06:32:14;;;;;;;6.47;5.07;;;19.80;76.70;;;;;;5051444;28;20025;-56
2021/01/19 06:34:40;;;;;;;7.28;6.28;;;19.80;76.70;;;;;;5038035;28;20429;-55
2021/01/19 06:37:08;;;;;;;7.20;5.95;;;19.70;76.70;;;;;;5032560;28;20026;-55
2021/01/19 06:39:38;;;;;;;6.05;5.20;;;19.80;76.80;;;;;;5033975;28;20075;-56
2021/01/19 06:42:05;;;;;;;7.32;5.90;;;19.80;76.60;;;;;;5043933;28;20127;-56
2021/01/19 06:44:36;;;;;;;6.38;5.55;;;19.70;76.70;;;;;;5048650;28;20087;-55
2021/01/19 06:47:03;;;;;;;6.38;5.28;;;19.70;76.70;;;;;;5053353;28;20037;-55
2021/01/19 06:49:33;;;;;;;7.18;5.78;;;19.80;77.00;;;;;;5052220;28;20032;-55
2021/01/19 06:52:04;;;;;;;5.95;5.28;;;19.80;76.90;;;;;;5053575;28;20025;-55
2021/01/19 06:54:41;;;;;;;8.35;5.88;;;19.80;77.10;;;;;;5051663;28;20167;-55
2021/01/19 06:57:19;;;;;;;6.32;5.05;;;19.70;77.10;;;;;;5033294;28;20063;-55
2021/01/19 06:59:54;;;;;;;6.25;5.22;;;19.70;76.90;;;;;;5033387;28;20029;-55
2021/01/19 07:02:22;;;;;;;7.10;5.45;;;19.70;77.20;;;;;;5033996;28;20049;-55
2021/01/19 07:04:56;;;;;;;7.60;5.97;;;19.70;77.30;;;;;;5034388;28;20048;-55
2021/01/19 07:07:35;;;;;;;6.07;5.00;;;19.70;77.30;;;;;;5033362;28;20037;-55
2021/01/19 07:10:14;;;;;;;6.28;5.22;;;19.70;76.90;;;;;;5032092;28;20080;-55
2021/01/19 07:13:02;;;;;;;6.57;5.47;;;19.70;77.10;;;;;;5044604;28;20029;-55
2021/01/19 07:16:06;;;;;;;5.93;5.05;;;19.70;77.00;;;;;;5051238;28;20075;-55
2021/01/19 07:19:03;;;;;;;7.15;5.80;;;19.70;77.20;;;;;;5043437;28;20041;-55
2021/01/19 07:21:44;;;;;;;7.47;5.18;;;19.70;77.20;;;;;;5033294;28;20026;-55
2021/01/19 07:24:36;;;;;;;6.72;5.28;;;19.70;77.10;;;;;;5033345;28;20116;-55
2021/01/19 07:27:03;;;;;;;5.93;4.97;;;19.70;77.00;;;;;;5034244;28;20026;-55
2021/01/19 07:29:29;;;;;;;5.95;4.97;;;19.70;77.20;;;;;;5034204;28;20421;-55
2021/01/19 07:31:56;;;;;;;6.30;5.25;;;19.70;77.30;;;;;;5031509;28;20086;-55
2021/01/19 07:34:22;;;;;;;6.05;5.05;;;19.70;78.10;;;;;;5032083;28;20462;-55
2021/01/19 07:36:55;;;;;;;6.45;5.20;;;19.70;77.50;;;;;;5039484;28;20025;-54
2021/01/19 07:39:21;;;;;;;6.05;4.82;;;19.70;77.40;;;;;;5040714;28;20065;-54
2021/01/19 07:41:48;;;;;;;6.78;4.95;;;19.70;77.60;;;;;;5043943;28;20045;-55
2021/01/19 07:44:24;;;;;;;8.02;6.22;;;19.70;77.50;;;;;;5031722;28;20136;-54
2021/01/19 07:46:50;;;;;;;11.20;5.00;;;19.70;77.90;;;;;;5045953;28;20033;-55
2021/01/19 07:49:16;;;;;;;23.00;6.60;;;19.70;77.50;;;;;;5034286;28;20041;-55
2021/01/19 07:51:48;;;;;;;7.88;5.03;;;19.70;77.80;;;;;;5037567;28;20078;-55
2021/01/19 07:54:20;;;;;;;8.98;5.25;;;19.90;77.10;;;;;;5052999;28;20025;-57
2021/01/19 07:56:46;;;;;;;10.93;5.47;;;20.00;77.00;;;;;;5042342;28;20544;-59
2021/01/19 07:59:16;;;;;;;12.48;5.22;;;20.10;77.50;;;;;;5035743;28;20125;-58
2021/01/19 08:01:53;;;;;;;13.90;5.97;;;20.10;77.00;;;;;;5033225;28;20025;-53
2021/01/19 08:04:30;;;;;;;6.90;4.80;;;20.20;76.80;;;;;;5034155;28;20026;-55
2021/01/19 08:06:57;;;;;;;10.30;5.75;;;20.20;76.90;;;;;;5039835;28;20043;-54
2021/01/19 08:09:23;;;;;;;9.40;4.88;;;20.20;76.70;;;;;;5051347;28;20037;-54
2021/01/19 08:12:04;;;;;;;5.93;4.35;;;20.30;76.80;;;;;;5052865;28;20025;-55
2021/01/19 08:14:34;;;;;;;7.88;5.10;;;20.30;76.60;;;;;;5050896;28;20044;-55
2021/01/19 08:17:04;;;;;;;10.82;5.35;;;20.30;76.50;;;;;;5035172;28;20030;-53
2021/01/19 08:19:44;;;;;;;12.98;6.50;;;20.30;76.70;;;;;;5031608;28;20029;-53
2021/01/19 08:22:11;;;;;;;10.63;4.97;;;20.30;77.10;;;;;;5038974;28;20120;-53
2021/01/19 08:24:40;;;;;;;9.95;5.55;;;20.30;76.70;;;;;;5032361;28;20059;-54
2021/01/19 08:27:05;;;;;;;8.52;5.40;;;20.30;76.70;;;;;;5041695;28;20418;-53
2021/01/19 08:29:31;;;;;;;10.18;5.32;;;20.40;76.40;;;;;;5055890;28;20021;-53
2021/01/19 08:31:59;;;;;;;7.55;5.07;;;20.40;76.50;;;;;;5043315;28;20049;-53
2021/01/19 08:34:26;;;;;;;8.50;4.88;;;20.40;76.60;;;;;;5037226;28;20036;-53
2021/01/19 08:36:53;;;;;;;9.32;5.13;;;20.40;76.70;;;;;;5055750;28;20021;-53
2021/01/19 08:39:20;;;;;;;11.77;5.65;;;20.40;76.60;;;;;;5054007;28;20090;-51
2021/01/19 08:41:50;;;;;;;8.50;4.97;;;20.50;76.50;;;;;;5056133;28;20115;-54
2021/01/19 08:44:17;;;;;;;9.60;4.85;;;20.50;76.40;;;;;;5055933;28;20112;-54
2021/01/19 08:46:43;;;;;;;8.15;4.72;;;20.50;76.30;;;;;;5038273;28;20414;-55
2021/01/19 08:49:14;;;;;;;5.80;4.32;;;20.50;76.20;;;;;;5036741;28;20093;-54
2021/01/19 08:51:49;;;;;;;10.48;4.90;;;20.50;76.50;;;;;;5034718;28;20478;-52
2021/01/19 08:54:15;;;;;;;8.35;4.38;;;20.50;76.40;;;;;;5034173;28;20029;-54
2021/01/19 08:56:42;;;;;;;7.28;4.93;;;20.50;76.20;;;;;;5051562;28;20060;-52
2021/01/19 08:59:15;;;;;;;7.43;4.22;;;20.50;76.30;;;;;;5055762;28;20028;-54
2021/01/19 09:01:48;;;;;;;10.70;4.75;;;20.50;76.20;;;;;;5055585;28;20029;-53
2021/01/19 09:04:22;;;;;;;7.68;3.97;;;20.50;76.20;;;;;;5055794;28;20053;-54
2021/01/19 09:06:48;;;;;;;8.65;4.03;;;20.60;76.40;;;;;;5038612;28;20041;-54
2021/01/19 09:09:22;;;;;;;7.63;4.32;;;20.50;76.40;;;;;;5035723;28;20476;-52
2021/01/19 09:11:51;;;;;;;12.25;5.13;;;20.50;76.20;;;;;;5035642;28;20033;-53
2021/01/19 09:14:23;;;;;;;7.28;4.10;;;20.50;76.50;;;;;;5035440;28;20156;-52
2021/01/19 09:16:49;;;;;;;8.60;4.05;;;20.60;76.40;;;;;;5048800;28;20116;-52
2021/01/19 09:19:14;;;;;;;14.93;6.72;;;20.60;76.10;;;;;;5034883;28;20447;-54
2021/01/19 09:21:40;;;;;;;10.70;5.28;;;20.50;77.90;;;;;;5035125;28;20104;-53
2021/01/19 09:24:16;;;;;;;10.15;4.18;;;20.50;77.10;;;;;;5034899;28;20021;-53
2021/01/19 09:26:58;;;;;;;8.57;4.65;;;20.50;76.80;;;;;;5035243;28;20459;-53
2021/01/19 09:29:27;;;;;;;7.43;4.20;;;20.60;76.40;;;;;;5052096;28;20028;-54
2021/01/19 09:31:56;;;;;;;8.18;3.95;;;20.60;76.40;;;;;;5054985;28;20029;-54
2021/01/19 09:34:22;;;;;;;8.90;4.82;;;20.60;76.30;;;;;;5053304;28;20377;-53
2021/01/19 09:36:51;;;;;;;8.20;4.20;;;20.60;76.30;;;;;;5054579;28;20040;-52
2021/01/19 09:39:27;;;;;;;9.43;4.30;;;20.60;76.20;;;;;;5039408;28;20037;-53
2021/01/19 09:41:54;;;;;;;9.43;3.97;;;20.70;76.20;;;;;;5034750;28;20470;-53
2021/01/19 09:44:20;;;;;;;8.45;3.85;;;20.60;76.30;;;;;;5034131;28;20025;-53
2021/01/19 09:46:52;;;;;;;9.13;4.35;;;20.60;76.30;;;;;;5038575;28;20032;-53
2021/01/19 09:49:19;;;;;;;6.63;4.38;;;20.60;76.20;;;;;;5041860;28;20461;-54
2021/01/19 09:51:45;;;;;;;8.45;4.28;;;20.70;76.40;;;;;;5035040;28;20022;-54
2021/01/19 09:54:10;;;;;;;6.63;3.60;;;20.70;76.40;;;;;;5034825;28;20032;-56
2021/01/19 09:56:36;;;;;;;6.47;3.80;;;20.70;76.30;;;;;;5033095;28;20065;-54
2021/01/19 09:59:03;;;;;;;5.95;3.85;;;20.70;76.30;;;;;;5043422;28;20470;-54
2021/01/19 10:01:29;;;;;;;6.18;3.50;;;20.70;76.40;;;;;;5054448;28;20120;-55
2021/01/19 10:03:56;;;;;;;6.20;3.63;;;20.70;75.90;;;;;;5054557;28;20418;-52
2021/01/19 10:06:24;;;;;;;7.43;3.45;;;20.70;76.20;;;;;;5054145;28;20033;-53
2021/01/19 10:08:52;;;;;;;7.00;3.80;;;20.70;76.20;;;;;;5048395;28;20030;-54
2021/01/19 10:11:37;;;;;;;5.78;3.60;;;20.70;76.20;;;;;;5046644;28;20131;-52
2021/01/19 10:14:13;;;;;;;7.10;3.33;;;20.70;76.20;;;;;;5049660;28;20086;-52
2021/01/19 10:16:45;;;;;;;6.57;3.60;;;20.80;76.30;;;;;;5052117;28;20474;-53
2021/01/19 10:19:20;;;;;;;5.22;3.28;;;20.70;76.30;;;;;;5046205;28;20033;-54
2021/01/19 10:21:50;;;;;;;5.45;3.30;;;20.80;76.30;;;;;;5033586;28;20029;-53
2021/01/19 10:24:16;;;;;;;7.78;3.22;;;20.70;76.30;;;;;;5051306;28;20120;-53
2021/01/19 10:26:59;;;;;;;5.28;3.03;;;20.70;76.50;;;;;;5053957;28;20029;-54
2021/01/19 10:29:25;;;;;;;4.97;2.95;;;20.80;76.40;;;;;;5050346;28;20021;-54
2021/01/19 10:32:01;;;;;;;6.88;3.30;;;20.70;76.30;;;;;;5051773;28;20385;-53
2021/01/19 10:34:28;;;;;;;4.30;3.20;;;20.70;76.50;;;;;;5052729;28;20115;-52
2021/01/19 10:36:57;;;;;;;4.75;3.10;;;20.80;76.50;;;;;;5048423;28;20021;-53
2021/01/19 10:39:24;;;;;;;6.68;3.30;;;20.70;76.60;;;;;;5038474;28;20060;-53
2021/01/19 10:41:51;;;;;;;5.63;3.60;;;20.80;76.50;;;;;;5053288;28;20377;-53
2021/01/19 10:44:17;;;;;;;3.83;2.85;;;20.80;76.40;;;;;;5050428;28;20029;-52
2021/01/19 10:46:44;;;;;;;5.07;2.83;;;20.70;76.60;;;;;;5033093;28;20030;-53
2021/01/19 10:49:15;;;;;;;5.22;3.05;;;20.70;76.50;;;;;;5034677;28;20025;-53
2021/01/19 10:51:42;;;;;;;4.88;2.97;;;20.80;76.50;;;;;;5040718;28;20021;-54
2021/01/19 10:54:10;;;;;;;5.10;2.90;;;20.80;76.50;;;;;;5053247;28;20448;-54
2021/01/19 10:56:37;;;;;;;4.10;2.58;;;20.80;76.50;;;;;;5035811;28;20049;-54
2021/01/19 10:59:03;;;;;;;4.45;2.78;;;20.80;76.30;;;;;;5039101;28;20100;-52
2021/01/19 11:01:31;;;;;;;4.38;2.92;;;20.90;76.30;;;;;;5051393;28;20100;-52
2021/01/19 11:03:56;;;;;;;6.57;2.65;;;20.80;76.60;;;;;;5042615;28;20042;-54
2021/01/19 11:06:28;;;;;;;3.67;2.53;;;20.80;76.40;;;;;;5033249;28;20044;-52
2021/01/19 11:08:54;;;;;;;5.28;3.03;;;20.80;76.60;;;;;;5034778;28;20026;-54
2021/01/19 11:11:19;;;;;;;4.18;2.88;;;20.80;76.60;;;;;;5051411;28;20040;-54
2021/01/19 11:13:45;;;;;;;10.88;4.05;;;20.90;76.50;;;;;;5051528;28;20063;-55
2021/01/19 11:16:11;;;;;;;29.52;5.60;;;20.90;76.70;;;;;;5043980;28;20029;-55
2021/01/19 11:18:36;;;;;;;16.25;5.05;;;20.80;77.50;;;;;;5034216;28;20053;-58
2021/01/19 11:21:04;;;;;;;16.98;6.47;;;20.70;77.90;;;;;;5032788;28;20026;-59
2021/01/19 11:23:30;;;;;;;23.55;6.85;;;20.70;77.80;;;;;;5052813;28;20041;-64
2021/01/19 11:25:55;;;;;;;20.27;5.65;;;20.70;78.00;;;;;;5047251;28;20083;-58
2021/01/19 11:28:21;;;;;;;18.98;6.00;;;20.60;78.30;;;;;;5032175;28;20451;-58
2021/01/19 11:30:48;;;;;;;16.27;5.10;;;20.50;78.40;;;;;;5040560;28;20040;-58
2021/01/19 11:33:13;;;;;;;17.15;6.22;;;20.50;78.40;;;;;;5037236;28;20087;-58
2021/01/19 11:35:39;;;;;;;13.50;6.45;;;20.40;79.00;;;;;;5033111;28;20471;-58
2021/01/19 11:38:05;;;;;;;14.68;5.80;;;20.40;78.20;;;;;;5035206;28;20033;-58
2021/01/19 11:40:30;;;;;;;26.05;7.57;;;20.40;76.30;;;;;;5035178;28;20481;-58
2021/01/19 11:42:56;;;;;;;28.60;9.65;;;20.40;77.00;;;;;;5053076;28;20104;-58
2021/01/19 11:45:23;;;;;;;22.27;9.18;;;20.40;79.50;;;;;;5051262;28;20029;-59
2021/01/19 11:47:49;;;;;;;26.33;10.55;;;20.40;79.80;;;;;;5041622;28;20029;-58
2021/01/19 11:50:15;;;;;;;24.42;10.40;;;20.30;79.90;;;;;;5031610;28;20367;-58
2021/01/19 11:52:40;;;;;;;31.30;11.13;;;20.30;79.90;;;;;;5034164;28;20037;-58
2021/01/19 11:55:07;;;;;;;23.20;11.02;;;20.30;79.70;;;;;;5031333;28;20488;-58
2021/01/19 11:57:36;;;;;;;26.25;10.57;;;20.30;79.90;;;;;;5032726;28;20056;-59
2021/01/19 12:00:03;;;;;;;24.23;10.75;;;20.30;80.20;;;;;;5033168;28;20029;-59
2021/01/19 12:02:28;;;;;;;23.83;9.73;;;20.20;79.70;;;;;;5047130;28;20469;-59
2021/01/19 12:04:54;;;;;;;21.33;10.35;;;20.20;79.60;;;;;;5056414;28;20025;-59
2021/01/19 12:07:20;;;;;;;22.55;9.38;;;20.20;79.90;;;;;;5039576;28;20335;-53
2021/01/19 12:09:47;;;;;;;19.55;8.70;;;20.30;79.90;;;;;;5036432;28;20063;-57
2021/01/19 12:12:12;;;;;;;22.40;9.30;;;20.30;79.10;;;;;;5036010;28;20025;-54
2021/01/19 12:14:38;;;;;;;17.90;9.32;;;20.40;79.10;;;;;;5036367;28;20029;-54
2021/01/19 12:17:03;;;;;;;19.10;8.95;;;20.50;78.60;;;;;;5051565;28;20028;-54
2021/01/19 12:19:29;;;;;;;17.15;8.70;;;20.60;78.40;;;;;;5044022;28;20029;-53
2021/01/19 12:21:58;;;;;;;20.23;8.30;;;20.60;78.40;;;;;;5034565;28;20076;-54
2021/01/19 12:24:24;;;;;;;13.18;7.60;;;20.60;78.60;;;;;;5036521;28;20021;-54
2021/01/19 12:26:57;;;;;;;16.67;8.35;;;20.60;78.60;;;;;;5037583;28;20030;-54
2021/01/19 12:29:25;;;;;;;15.18;7.88;;;20.60;78.60;;;;;;5034614;28;20076;-54
2021/01/19 12:31:51;;;;;;;17.95;7.28;;;20.60;78.70;;;;;;5048765;28;20029;-55
2021/01/19 12:34:17;;;;;;;16.80;7.72;;;20.60;78.90;;;;;;5042817;28;20036;-55
2021/01/19 12:36:44;;;;;;;17.65;7.85;;;20.60;78.90;;;;;;5056333;28;20108;-54
2021/01/19 12:39:10;;;;;;;16.85;7.93;;;20.70;78.70;;;;;;5037108;28;20033;-54
2021/01/19 12:41:36;;;;;;;14.10;7.57;;;20.60;78.80;;;;;;5036980;28;20569;-52
2021/01/19 12:44:03;;;;;;;16.88;7.63;;;20.70;78.70;;;;;;5036676;28;20430;-55
2021/01/19 12:46:29;;;;;;;15.27;6.22;;;20.60;78.90;;;;;;5041002;28;20084;-55
2021/01/19 12:48:56;;;;;;;13.57;6.40;;;20.60;78.90;;;;;;5035489;28;20406;-54
2021/01/19 12:51:21;;;;;;;17.60;6.43;;;20.60;78.90;;;;;;5035934;28;20029;-55